Airfield :
LOGIN :

Register | Disclaimer

   EN    FR    IT 

 










Legend :    VFR   Marginal VFR   IFR   Intensive IFR   Very Intensive IFR
Visi :
Ceiling :
>= 8 km
>= 3000ft
5 to 8 km
1000 to 3000 ft
1500m to 5 km
500 to 1000 ft
800 to 1500m
200 to 500 ft
< 800m
< 200 ft
Symbols :   Thunderstorms  Fog  Heavy snow  Heavy precipitations  Wind > 20 kt
SIGMETs :     Misc.  Thunderstorms  Icing  Turbulence  Mountain Waves  Volcanic Ashes







- Airport Elevation : 40 ft
- IATA code : RMI


LIPR - Federico Fellini Int. Rimini

CURRENT METAR :
  • 241215Z 01004KT 1200 R31/P1500 BR BKN002 SCT060 12/10 Q1022

EXPIRED METARs :
  • 241145Z 02004KT 1400 1000SW R31/P1500 BR SCT002 12/10 Q1022
  • 241115Z 03003KT 2100 1100S BR SCT002 12/10 Q1022
  • 241045Z 04003KT 2200 1200S BR SCT002 12/10 Q1022
  • 241015Z 02003KT 2100 1100S BR BKN001 12/11 Q1022
  • 240945Z 31020KT 0700 R31/1400 FG BKN001 11/10 Q1022

TAF TAF LIPR
Valid from the 24 at 12:00 until the 24 at 21:00 UTC


241100Z 2412/2421 VRB03KT 4000 BR SCT010
TEMPO 2416/2421 0800 FG BKN003
No reported NOTAMs for that airfield.



MET'MAP, your aeronautical weather chart ! - Copyright ORBIFLY December 2007 - Disclaimer

ORBIFLY MET'MAP TEAM :

Programming & Development : Alexandra Zaïnal
Concept & Development : Baudouin d'Aumeries
Co-Development & Prog : Marc-Olivier Méhu
Technical & hardware support : Manuel Goepfert

Contact : metmap@orbifly.com




SOURCES & CREDITS :

   NOAA